Time;durP1;ratioP1;P1;durP2;ratioP2;P2;SDS_P1;SDS_P2;PMS_P1;PMS_P2;Temp;Humidity;BMP_temperature;BMP_pressure;BME280_temperature;BME280_humidity;BME280_pressure;Samples;Min_cycle;Max_cycle;Signal;HPM_P1;HPM_P2
2024/02/26 00:02:15;;;;;;;2.72;1.42;;;0.70;99.90;;;;;;5032694;28;20431;-68
2024/02/26 00:04:41;;;;;;;3.22;1.63;;;0.90;99.90;;;;;;5032001;28;20074;-68
2024/02/26 00:07:06;;;;;;;4.32;1.70;;;0.80;99.90;;;;;;5029536;28;20037;-68
2024/02/26 00:09:35;;;;;;;5.13;2.05;;;0.70;99.90;;;;;;5029561;28;20056;-68
2024/02/26 00:12:01;;;;;;;3.28;2.00;;;0.70;99.90;;;;;;5045029;28;20026;-68
2024/02/26 00:14:26;;;;;;;2.83;1.65;;;0.60;99.90;;;;;;5028605;28;20447;-68
2024/02/26 00:16:52;;;;;;;2.95;1.52;;;0.60;99.90;;;;;;5028718;28;20423;-68
2024/02/26 00:19:17;;;;;;;4.30;1.73;;;0.40;99.90;;;;;;5027525;28;20102;-68
2024/02/26 00:21:43;;;;;;;4.85;2.10;;;0.40;99.90;;;;;;5027654;28;20037;-68
2024/02/26 00:24:08;;;;;;;3.63;1.88;;;0.40;99.90;;;;;;5026178;28;20034;-68
2024/02/26 00:26:34;;;;;;;6.30;2.15;;;0.40;99.90;;;;;;5028744;28;20093;-69
2024/02/26 00:28:59;;;;;;;5.97;2.22;;;0.40;99.90;;;;;;5028922;28;20065;-68
2024/02/26 00:31:25;;;;;;;4.80;2.40;;;0.40;99.90;;;;;;5027247;28;20092;-68
2024/02/26 00:33:50;;;;;;;5.70;2.60;;;0.30;99.90;;;;;;5027829;28;20048;-68
2024/02/26 00:36:16;;;;;;;4.63;2.30;;;0.20;99.90;;;;;;5030811;28;20033;-68
2024/02/26 00:38:42;;;;;;;4.40;2.00;;;0.20;99.90;;;;;;5029528;28;20048;-68
2024/02/26 00:41:08;;;;;;;5.80;2.70;;;0.10;99.90;;;;;;5030604;28;20052;-68
2024/02/26 00:43:33;;;;;;;6.70;3.00;;;0.10;99.90;;;;;;5032429;28;20041;-68
2024/02/26 00:45:59;;;;;;;5.32;2.65;;;0.10;99.90;;;;;;5031972;28;20090;-68
2024/02/26 00:48:25;;;;;;;5.25;2.40;;;0.10;99.90;;;;;;5031667;28;20066;-68
2024/02/26 00:50:51;;;;;;;7.47;2.45;;;0.10;99.90;;;;;;5032461;28;20033;-68
2024/02/26 00:53:16;;;;;;;4.50;2.88;;;0.00;99.90;;;;;;5030288;28;20052;-68
2024/02/26 00:55:42;;;;;;;4.70;2.20;;;0.10;99.90;;;;;;5030874;28;20121;-68
2024/02/26 00:58:09;;;;;;;4.15;2.65;;;0.10;99.90;;;;;;5025150;28;20033;-68
2024/02/26 01:00:34;;;;;;;5.60;2.85;;;0.00;99.90;;;;;;5025260;28;20022;-68
2024/02/26 01:03:00;;;;;;;5.82;2.70;;;0.00;99.90;;;;;;5026806;28;20411;-68
2024/02/26 01:05:25;;;;;;;7.57;2.95;;;0.00;99.90;;;;;;5037095;28;20041;-68
2024/02/26 01:07:51;;;;;;;5.95;2.70;;;0.00;99.90;;;;;;5033704;28;20044;-68
2024/02/26 01:10:16;;;;;;;6.65;2.72;;;0.00;99.90;;;;;;5035740;28;20025;-68
2024/02/26 01:12:42;;;;;;;4.90;2.47;;;0.00;99.90;;;;;;5033787;28;20415;-68
2024/02/26 01:15:08;;;;;;;4.57;2.60;;;0.00;99.90;;;;;;5039588;28;20484;-68
2024/02/26 01:17:33;;;;;;;4.82;2.50;;;0.00;99.90;;;;;;5036719;28;20023;-68
2024/02/26 01:19:59;;;;;;;5.15;2.42;;;0.00;99.90;;;;;;5039045;28;20116;-68
2024/02/26 01:22:24;;;;;;;6.25;2.50;;;0.00;99.90;;;;;;5036278;28;20413;-68
2024/02/26 01:24:50;;;;;;;5.70;2.80;;;0.00;99.90;;;;;;5032114;28;20114;-68
2024/02/26 01:27:15;;;;;;;6.10;2.90;;;0.00;99.90;;;;;;5031730;28;20033;-68
2024/02/26 01:29:41;;;;;;;5.72;2.47;;;-3276.70;99.90;;;;;;5036211;28;20399;-68
2024/02/26 01:32:07;;;;;;;5.38;2.40;;;-3276.70;99.90;;;;;;5032082;28;20045;-68
2024/02/26 01:34:33;;;;;;;5.47;2.70;;;-3276.70;99.90;;;;;;5047090;28;20234;-68
2024/02/26 01:36:59;;;;;;;6.10;2.92;;;-3276.70;99.90;;;;;;5029421;28;20083;-68
2024/02/26 01:39:24;;;;;;;6.93;3.08;;;-3276.60;99.90;;;;;;5041268;28;20042;-68
2024/02/26 01:41:50;;;;;;;6.95;3.05;;;-3276.60;99.90;;;;;;5029462;28;20115;-68
2024/02/26 01:44:15;;;;;;;5.95;2.33;;;-3276.70;99.90;;;;;;5031840;28;20387;-68
2024/02/26 01:46:41;;;;;;;5.78;2.38;;;-3276.60;99.90;;;;;;5039390;28;20120;-68
2024/02/26 01:49:11;;;;;;;5.57;2.33;;;-3276.70;99.90;;;;;;5041547;28;20040;-68
2024/02/26 01:51:39;;;;;;;6.47;3.08;;;-3276.60;99.90;;;;;;5035136;28;20036;-68
2024/02/26 01:54:06;;;;;;;5.25;2.50;;;-3276.60;99.90;;;;;;5031534;28;20479;-68
2024/02/26 01:56:32;;;;;;;6.10;2.72;;;-3276.60;99.90;;;;;;5035538;28;20286;-68
2024/02/26 01:58:59;;;;;;;4.88;2.40;;;-3276.50;99.90;;;;;;5026768;28;20055;-68
2024/02/26 02:01:31;;;;;;;5.53;2.50;;;-3276.50;99.90;;;;;;5028020;28;20119;-68
2024/02/26 02:03:58;;;;;;;6.20;3.05;;;-3276.50;99.90;;;;;;5030287;28;20040;-68
2024/02/26 02:06:24;;;;;;;6.45;2.75;;;-3276.50;99.90;;;;;;5032374;28;20174;-68
2024/02/26 02:08:50;;;;;;;6.50;2.85;;;-3276.50;99.90;;;;;;5031992;28;20079;-68
2024/02/26 02:11:16;;;;;;;8.60;3.03;;;-3276.40;99.90;;;;;;5035378;28;20045;-68
2024/02/26 02:13:42;;;;;;;7.47;3.30;;;-3276.40;99.90;;;;;;5035600;28;20435;-70
2024/02/26 02:16:07;;;;;;;5.55;2.80;;;-3276.30;99.90;;;;;;5028461;28;20040;-68
2024/02/26 02:18:33;;;;;;;6.57;2.90;;;-3276.40;99.90;;;;;;5034803;28;20317;-68
2024/02/26 02:21:02;;;;;;;6.93;2.88;;;-3276.40;99.90;;;;;;5028695;28;20138;-68
2024/02/26 02:23:28;;;;;;;7.97;3.80;;;-3276.40;99.90;;;;;;5040425;28;20425;-68
2024/02/26 02:25:55;;;;;;;8.15;3.15;;;-3276.40;99.90;;;;;;5028310;28;20036;-68
2024/02/26 02:28:21;;;;;;;7.80;2.78;;;-3276.30;99.90;;;;;;5040553;28;20347;-68
2024/02/26 02:30:46;;;;;;;8.43;3.30;;;-3276.30;99.90;;;;;;5030625;28;20030;-68
2024/02/26 02:33:12;;;;;;;7.50;3.55;;;-3276.30;99.90;;;;;;5027260;28;20064;-68
2024/02/26 02:35:38;;;;;;;7.72;3.42;;;-3276.30;99.90;;;;;;5025182;28;20078;-68
2024/02/26 02:38:04;;;;;;;6.63;3.00;;;-3276.30;99.90;;;;;;5036547;28;20119;-68
2024/02/26 02:40:29;;;;;;;6.90;2.80;;;-3276.30;99.90;;;;;;5026399;28;20094;-68
2024/02/26 02:42:54;;;;;;;7.10;3.45;;;-3276.20;99.90;;;;;;5034867;28;20029;-68
2024/02/26 02:45:20;;;;;;;8.73;3.67;;;-3276.20;99.90;;;;;;5025509;28;20037;-68
2024/02/26 02:47:45;;;;;;;6.53;3.17;;;-3276.10;99.90;;;;;;5030154;28;20459;-68
2024/02/26 02:50:11;;;;;;;8.98;3.80;;;-3276.10;99.90;;;;;;5029396;28;20022;-68
2024/02/26 02:52:36;;;;;;;7.57;2.78;;;-3276.30;99.90;;;;;;5025738;28;20195;-68
2024/02/26 02:55:02;;;;;;;8.63;3.97;;;-3276.20;99.90;;;;;;5031564;28;21940;-68
2024/02/26 02:57:28;;;;;;;5.63;2.72;;;-3276.20;99.90;;;;;;5030054;28;20029;-68
2024/02/26 02:59:53;;;;;;;7.80;3.65;;;-3276.10;99.90;;;;;;5030039;28;20030;-68
2024/02/26 03:02:19;;;;;;;9.30;3.90;;;-3276.10;99.90;;;;;;5034953;28;20044;-68
2024/02/26 03:04:44;;;;;;;10.75;4.13;;;-3276.10;99.90;;;;;;5036460;28;20224;-68
2024/02/26 03:07:10;;;;;;;9.32;3.55;;;-3276.10;99.90;;;;;;5034634;28;20363;-69
2024/02/26 03:09:35;;;;;;;7.13;3.38;;;-3276.00;99.90;;;;;;5027184;28;20104;-68
2024/02/26 03:12:01;;;;;;;8.77;4.45;;;-3276.00;99.90;;;;;;5036107;28;20339;-68
2024/02/26 03:14:26;;;;;;;10.27;3.80;;;-3276.00;99.90;;;;;;5027729;28;20042;-67
2024/02/26 03:16:55;;;;;;;7.80;3.08;;;-3276.00;99.90;;;;;;5026972;28;20068;-68
2024/02/26 03:19:21;;;;;;;10.30;3.47;;;-3276.00;99.90;;;;;;5030353;28;20175;-68
2024/02/26 03:21:46;;;;;;;8.98;3.63;;;-3276.00;99.90;;;;;;5032103;28;20503;-68
2024/02/26 03:24:12;;;;;;;8.75;4.38;;;-3276.00;99.90;;;;;;5028700;28;20117;-68
2024/02/26 03:26:38;;;;;;;9.40;3.63;;;-3276.00;99.90;;;;;;5028038;28;20045;-69
2024/02/26 03:29:03;;;;;;;10.95;4.05;;;-3276.00;99.90;;;;;;5030414;28;20036;-68
2024/02/26 03:31:29;;;;;;;9.77;3.72;;;-3275.90;99.90;;;;;;5029637;28;20113;-69
2024/02/26 03:33:54;;;;;;;10.52;4.70;;;-3275.90;99.90;;;;;;5031365;28;20022;-68
2024/02/26 03:36:21;;;;;;;9.38;3.65;;;-3276.00;99.90;;;;;;5033544;28;20107;-69
2024/02/26 03:38:47;;;;;;;10.35;3.92;;;-3276.00;99.90;;;;;;5033174;28;20057;-68
2024/02/26 03:41:13;;;;;;;8.55;4.57;;;-3276.00;99.90;;;;;;5033715;28;20038;-68
2024/02/26 03:43:39;;;;;;;11.13;3.95;;;-3276.00;99.90;;;;;;5026877;28;20052;-68
2024/02/26 03:46:08;;;;;;;13.60;4.13;;;-3276.00;99.90;;;;;;5032859;28;20086;-69
2024/02/26 03:48:34;;;;;;;11.15;4.40;;;-3276.00;99.90;;;;;;5028630;28;20309;-68
2024/02/26 03:51:00;;;;;;;11.57;4.45;;;-3276.00;99.90;;;;;;5028036;28;20060;-68
2024/02/26 03:53:25;;;;;;;11.68;4.20;;;-3276.00;99.90;;;;;;5032445;28;20021;-68
2024/02/26 03:55:52;;;;;;;9.65;3.97;;;-3276.00;99.90;;;;;;5040165;28;20045;-67
2024/02/26 03:58:17;;;;;;;12.77;4.38;;;-3276.00;99.90;;;;;;5034893;28;20030;-68
2024/02/26 04:00:43;;;;;;;10.02;4.35;;;-3276.00;99.90;;;;;;5023705;28;20135;-68
2024/02/26 04:03:09;;;;;;;8.18;4.13;;;-3276.00;99.90;;;;;;5031812;28;20635;-68
2024/02/26 04:05:34;;;;;;;12.07;4.35;;;-3276.00;99.90;;;;;;5032375;28;20033;-68
2024/02/26 04:08:00;;;;;;;10.77;5.15;;;-3276.00;99.90;;;;;;5028927;28;20091;-68
2024/02/26 04:10:25;;;;;;;10.05;4.88;;;-3276.10;99.90;;;;;;5025667;28;20076;-68
2024/02/26 04:12:51;;;;;;;9.30;4.32;;;-3276.10;99.90;;;;;;5025557;28;20083;-68
2024/02/26 04:15:16;;;;;;;11.13;4.22;;;-3276.20;99.90;;;;;;5024141;28;20053;-68
2024/02/26 04:17:42;;;;;;;7.80;4.07;;;-3276.20;99.90;;;;;;5024604;28;20451;-68
2024/02/26 04:20:12;;;;;;;13.50;5.18;;;-3276.20;99.90;;;;;;5023756;28;20113;-68
2024/02/26 04:22:37;;;;;;;11.45;5.60;;;-3276.30;99.90;;;;;;5029116;28;20034;-68
2024/02/26 04:25:03;;;;;;;12.10;4.72;;;-3276.30;99.90;;;;;;5024379;28;20034;-68
2024/02/26 04:27:29;;;;;;;13.63;4.65;;;-3276.30;99.90;;;;;;5026686;28;20041;-68
2024/02/26 04:29:54;;;;;;;14.90;5.30;;;-3276.30;99.90;;;;;;5025066;28;20074;-68
2024/02/26 04:32:20;;;;;;;10.25;4.60;;;-3276.30;99.90;;;;;;5025142;28;20484;-68
2024/02/26 04:34:46;;;;;;;9.48;4.45;;;-3276.30;99.90;;;;;;5024449;28;20036;-68
2024/02/26 04:37:11;;;;;;;11.00;4.72;;;-3276.30;99.90;;;;;;5022344;28;20033;-69
2024/02/26 04:39:36;;;;;;;13.50;5.25;;;-3276.30;99.90;;;;;;5025627;28;20038;-69
2024/02/26 04:42:03;;;;;;;9.63;4.53;;;-3276.30;99.90;;;;;;5027649;28;20040;-68
2024/02/26 04:44:29;;;;;;;10.07;4.75;;;-3276.30;99.90;;;;;;5026652;28;20029;-68
2024/02/26 04:46:54;;;;;;;11.70;5.05;;;-3276.20;99.90;;;;;;5024499;28;20517;-68
2024/02/26 04:49:20;;;;;;;12.25;4.88;;;-3276.30;99.90;;;;;;5023545;28;20029;-69
2024/02/26 04:51:47;;;;;;;13.35;5.43;;;-3276.30;99.90;;;;;;5024466;28;20040;-68
2024/02/26 04:54:13;;;;;;;14.00;5.10;;;-3276.40;99.90;;;;;;5018249;28;20128;-68
2024/02/26 04:56:38;;;;;;;13.70;5.13;;;-3276.40;99.90;;;;;;5028421;28;20100;-69
2024/02/26 04:59:04;;;;;;;14.48;4.78;;;-3276.50;99.90;;;;;;5023463;28;20487;-68
2024/02/26 05:01:29;;;;;;;14.85;6.45;;;-3276.50;99.90;;;;;;5024715;28;20040;-68
2024/02/26 05:03:55;;;;;;;13.95;5.93;;;-3276.50;99.90;;;;;;5027816;28;20363;-69
2024/02/26 05:06:20;;;;;;;14.13;5.50;;;-3276.40;99.90;;;;;;5024841;28;20083;-68
2024/02/26 05:08:46;;;;;;;12.88;5.95;;;-3276.40;99.90;;;;;;5021805;28;20033;-69
2024/02/26 05:11:11;;;;;;;11.35;5.32;;;-3276.40;99.90;;;;;;5021524;28;20093;-69
2024/02/26 05:13:37;;;;;;;10.48;4.78;;;-3276.40;99.90;;;;;;5024826;28;20630;-68
2024/02/26 05:16:02;;;;;;;10.63;5.28;;;-3276.40;99.90;;;;;;5028980;28;20094;-68
2024/02/26 05:18:28;;;;;;;11.98;5.22;;;-3276.40;99.90;;;;;;5023926;28;20069;-68
2024/02/26 05:20:53;;;;;;;12.60;4.78;;;-3276.40;99.90;;;;;;5027048;28;20123;-68
2024/02/26 05:23:19;;;;;;;10.55;4.75;;;-3276.40;99.90;;;;;;5025939;28;20129;-68
2024/02/26 05:25:47;;;;;;;9.68;4.80;;;-3276.40;99.90;;;;;;5027353;28;20040;-68
2024/02/26 05:28:12;;;;;;;13.32;5.40;;;-3276.40;99.90;;;;;;5024195;28;20116;-68
2024/02/26 05:30:39;;;;;;;14.20;5.47;;;-3276.40;99.90;;;;;;5023996;28;20041;-66
2024/02/26 05:33:05;;;;;;;11.05;4.65;;;-3276.40;99.90;;;;;;5025280;28;20025;-66
2024/02/26 05:35:30;;;;;;;10.32;4.90;;;-3276.40;99.90;;;;;;5024436;28;20052;-66
2024/02/26 05:37:56;;;;;;;14.27;4.95;;;-3276.40;99.90;;;;;;5019394;28;20452;-66
2024/02/26 05:40:21;;;;;;;10.77;4.57;;;-3276.40;99.90;;;;;;5038719;28;20037;-66
2024/02/26 05:42:47;;;;;;;11.98;5.65;;;-3276.40;99.90;;;;;;5020783;28;20041;-66
2024/02/26 05:45:12;;;;;;;11.98;4.80;;;-3276.40;99.90;;;;;;5023593;28;20040;-66
2024/02/26 05:47:42;;;;;;;12.63;5.78;;;-3276.40;99.90;;;;;;5025541;28;20103;-66
2024/02/26 05:50:10;;;;;;;14.25;5.90;;;-3276.40;99.90;;;;;;5024791;28;20029;-66
2024/02/26 05:52:36;;;;;;;12.55;5.25;;;-3276.40;99.90;;;;;;5020092;28;20034;-66
2024/02/26 05:55:02;;;;;;;11.88;4.78;;;-3276.40;99.90;;;;;;5024350;28;20044;-66
2024/02/26 05:57:28;;;;;;;11.88;5.47;;;-3276.50;99.90;;;;;;5023818;28;20605;-66
2024/02/26 05:59:53;;;;;;;13.93;5.30;;;-3276.50;99.90;;;;;;5036804;28;20034;-66
2024/02/26 06:02:18;;;;;;;12.35;5.70;;;-3276.50;99.90;;;;;;5026289;28;20083;-66
2024/02/26 06:04:44;;;;;;;10.80;5.05;;;-3276.60;99.90;;;;;;5025391;28;20048;-68
2024/02/26 06:07:09;;;;;;;12.23;5.57;;;-3276.60;99.90;;;;;;5022026;28;20205;-66
2024/02/26 06:09:35;;;;;;;12.75;5.40;;;-3276.60;99.90;;;;;;5025160;28;20117;-66
2024/02/26 06:12:00;;;;;;;10.65;5.10;;;-3276.60;99.90;;;;;;5025789;28;20478;-66
2024/02/26 06:14:26;;;;;;;13.50;5.05;;;-3276.70;99.90;;;;;;5028430;28;20037;-66
2024/02/26 06:16:51;;;;;;;12.52;4.95;;;-3276.70;99.90;;;;;;5027613;28;20536;-65
2024/02/26 06:19:17;;;;;;;13.90;5.25;;;-3276.70;99.90;;;;;;5029619;28;20029;-66
2024/02/26 06:21:42;;;;;;;12.70;5.22;;;-3276.70;99.90;;;;;;5025951;28;20087;-66
2024/02/26 06:24:08;;;;;;;11.85;5.30;;;0.00;99.90;;;;;;5027215;28;20033;-67
2024/02/26 06:26:33;;;;;;;12.73;5.90;;;0.00;99.90;;;;;;5034220;28;20033;-68
2024/02/26 06:28:59;;;;;;;10.52;4.80;;;0.00;99.90;;;;;;5024939;28;20428;-67
2024/02/26 06:31:27;;;;;;;12.35;4.88;;;0.00;99.90;;;;;;5026891;28;20267;-67
2024/02/26 06:33:53;;;;;;;9.23;4.88;;;0.00;99.90;;;;;;5025318;28;20045;-69
2024/02/26 06:36:18;;;;;;;11.57;5.75;;;0.00;99.90;;;;;;5020445;28;20041;-68
2024/02/26 06:38:44;;;;;;;9.52;4.82;;;0.00;99.90;;;;;;5041124;28;20063;-67
2024/02/26 06:41:09;;;;;;;12.93;5.15;;;0.10;99.90;;;;;;5028112;28;20530;-68
2024/02/26 06:43:35;;;;;;;11.65;4.93;;;0.10;99.90;;;;;;5036114;28;20056;-68
2024/02/26 06:46:00;;;;;;;13.07;4.80;;;0.20;99.90;;;;;;5029065;28;20048;-68
2024/02/26 06:48:26;;;;;;;13.07;5.28;;;0.20;99.90;;;;;;5029779;28;20040;-68
2024/02/26 06:50:51;;;;;;;15.30;5.90;;;0.20;99.90;;;;;;5025336;28;20527;-68
2024/02/26 06:53:17;;;;;;;11.15;4.82;;;0.30;99.90;;;;;;5026784;28;20041;-71
2024/02/26 06:55:42;;;;;;;11.93;5.35;;;0.20;99.90;;;;;;5026404;28;20045;-69
2024/02/26 06:58:08;;;;;;;11.27;4.68;;;0.30;99.90;;;;;;5022779;28;20026;-69
2024/02/26 07:00:34;;;;;;;11.02;5.25;;;0.30;99.90;;;;;;5027596;28;20024;-69
2024/02/26 07:03:00;;;;;;;10.45;4.95;;;0.40;99.90;;;;;;5030990;28;20082;-68
2024/02/26 07:05:26;;;;;;;11.13;5.18;;;0.40;99.90;;;;;;5028209;28;20204;-67
2024/02/26 07:07:52;;;;;;;11.18;4.75;;;0.40;99.90;;;;;;5025407;28;20036;-67
2024/02/26 07:10:18;;;;;;;12.52;5.20;;;0.50;99.90;;;;;;5032867;28;20308;-69
2024/02/26 07:12:43;;;;;;;9.98;4.25;;;0.60;99.90;;;;;;5037410;28;20045;-67
2024/02/26 07:15:10;;;;;;;12.82;5.50;;;0.60;99.90;;;;;;5032052;28;20049;-68
2024/02/26 07:17:35;;;;;;;10.48;5.00;;;0.60;99.90;;;;;;5029045;28;20033;-67
2024/02/26 07:20:04;;;;;;;10.18;5.07;;;0.80;99.90;;;;;;5036525;28;20025;-67
2024/02/26 07:22:29;;;;;;;11.35;5.03;;;0.70;99.90;;;;;;5020396;28;20261;-67
2024/02/26 07:24:55;;;;;;;10.70;5.10;;;0.80;99.90;;;;;;5028790;28;20046;-67
2024/02/26 07:27:21;;;;;;;11.45;5.22;;;0.80;99.90;;;;;;5029057;28;20049;-68
2024/02/26 07:29:47;;;;;;;9.88;4.43;;;0.80;99.90;;;;;;5030337;28;20127;-68
2024/02/26 07:32:12;;;;;;;7.93;4.10;;;0.80;99.90;;;;;;5033785;28;20489;-67
2024/02/26 07:34:41;;;;;;;14.05;5.25;;;0.80;99.90;;;;;;5024313;28;20041;-67
2024/02/26 07:37:07;;;;;;;12.45;5.68;;;0.90;99.90;;;;;;5023978;28;20502;-67
2024/02/26 07:39:32;;;;;;;7.22;3.60;;;1.00;99.90;;;;;;5031362;28;20025;-67
2024/02/26 07:41:58;;;;;;;8.13;4.13;;;0.90;99.90;;;;;;5022652;28;20051;-67
2024/02/26 07:44:23;;;;;;;10.82;4.22;;;1.00;99.90;;;;;;5031800;28;20103;-67
2024/02/26 07:46:49;;;;;;;12.68;4.75;;;1.00;99.90;;;;;;5025860;28;20048;-67
2024/02/26 07:49:15;;;;;;;8.32;3.95;;;1.00;99.90;;;;;;5031237;28;20033;-67
2024/02/26 07:51:40;;;;;;;10.90;4.72;;;1.00;99.90;;;;;;5028335;28;20041;-68
2024/02/26 07:54:06;;;;;;;9.48;4.68;;;1.00;99.90;;;;;;5023834;28;20220;-67
2024/02/26 07:56:31;;;;;;;10.40;5.15;;;1.10;99.90;;;;;;5025868;28;20198;-67
2024/02/26 07:58:57;;;;;;;13.60;4.70;;;1.10;99.90;;;;;;5024783;28;20348;-67
2024/02/26 08:01:23;;;;;;;12.55;5.35;;;1.10;99.90;;;;;;5026207;28;20456;-66
2024/02/26 08:03:48;;;;;;;10.75;5.13;;;1.10;99.90;;;;;;5026109;28;20074;-72
2024/02/26 08:06:14;;;;;;;9.85;4.82;;;1.20;99.90;;;;;;5025548;28;20036;-69
2024/02/26 08:08:39;;;;;;;11.77;5.28;;;1.30;99.90;;;;;;5020223;28;20236;-67
2024/02/26 08:11:05;;;;;;;9.77;4.82;;;1.30;99.90;;;;;;5028508;28;20077;-66
2024/02/26 08:13:31;;;;;;;14.07;5.28;;;1.40;99.90;;;;;;5026385;28;20044;-67
2024/02/26 08:15:56;;;;;;;12.48;5.35;;;1.40;99.90;;;;;;5023540;28;20041;-68
2024/02/26 08:18:21;;;;;;;11.25;5.28;;;1.40;99.90;;;;;;5022583;28;20042;-65
2024/02/26 08:20:48;;;;;;;8.73;4.85;;;1.50;99.90;;;;;;5021592;28;20059;-65
2024/02/26 08:23:14;;;;;;;8.40;4.18;;;1.60;99.90;;;;;;5026656;28;20026;-65
2024/02/26 08:25:40;;;;;;;10.15;4.68;;;1.70;99.90;;;;;;5026872;28;20049;-67
2024/02/26 08:28:05;;;;;;;7.47;4.68;;;1.70;99.90;;;;;;5024387;28;20075;-65
2024/02/26 08:30:31;;;;;;;8.38;4.15;;;1.80;99.90;;;;;;5024707;28;20037;-65
2024/02/26 08:32:56;;;;;;;9.93;4.38;;;1.90;99.90;;;;;;5026262;28;20483;-65
2024/02/26 08:35:22;;;;;;;10.90;5.15;;;1.90;99.90;;;;;;5036824;28;20109;-65
2024/02/26 08:37:47;;;;;;;9.13;4.68;;;2.00;99.90;;;;;;5027566;28;20432;-66
2024/02/26 08:40:14;;;;;;;7.95;3.88;;;2.10;99.90;;;;;;5027843;28;20048;-65
2024/02/26 08:42:39;;;;;;;9.98;4.25;;;2.10;99.90;;;;;;5028524;28;20387;-66
2024/02/26 08:45:06;;;;;;;7.88;3.55;;;2.20;99.90;;;;;;5026220;28;20037;-66
2024/02/26 08:47:32;;;;;;;7.95;4.10;;;2.20;99.90;;;;;;5029048;28;20486;-66
2024/02/26 08:49:58;;;;;;;7.35;3.70;;;2.20;99.90;;;;;;5026852;28;20068;-66
2024/02/26 08:52:23;;;;;;;9.90;4.32;;;2.40;99.90;;;;;;5034221;28;20034;-66
2024/02/26 08:54:49;;;;;;;6.22;3.38;;;2.40;99.90;;;;;;5027193;28;20033;-66
2024/02/26 08:57:15;;;;;;;7.90;3.90;;;2.40;99.90;;;;;;5031493;28;20041;-67
2024/02/26 08:59:40;;;;;;;8.60;4.13;;;2.50;99.90;;;;;;5026362;28;20053;-66
2024/02/26 09:02:08;;;;;;;9.02;3.92;;;2.60;99.90;;;;;;5028273;28;20123;-66
2024/02/26 09:04:35;;;;;;;8.02;4.30;;;2.70;99.90;;;;;;5025037;28;20447;-67
2024/02/26 09:07:01;;;;;;;7.13;3.72;;;2.70;99.90;;;;;;5025772;28;20136;-67
2024/02/26 09:09:26;;;;;;;8.32;3.85;;;2.80;99.90;;;;;;5033020;28;20124;-66
2024/02/26 09:11:52;;;;;;;9.98;4.85;;;2.80;99.90;;;;;;5028970;28;20391;-66
2024/02/26 09:14:18;;;;;;;8.73;3.92;;;2.90;99.90;;;;;;5031666;28;20044;-66
2024/02/26 09:16:43;;;;;;;11.13;4.80;;;2.80;99.90;;;;;;5024006;28;20049;-67
2024/02/26 09:19:09;;;;;;;9.80;5.05;;;3.00;99.90;;;;;;5023720;28;20488;-68
2024/02/26 09:21:34;;;;;;;10.02;4.47;;;3.00;99.90;;;;;;5024794;28;20021;-65
2024/02/26 09:24:00;;;;;;;9.55;4.28;;;3.10;99.90;;;;;;5023879;28;20069;-66
2024/02/26 09:26:25;;;;;;;8.30;4.03;;;3.10;99.90;;;;;;5016118;28;20118;-65
2024/02/26 09:28:51;;;;;;;8.50;4.35;;;3.20;99.90;;;;;;5024245;28;20032;-65
2024/02/26 09:31:17;;;;;;;7.80;3.90;;;3.30;99.90;;;;;;5020091;28;20074;-66
2024/02/26 09:33:43;;;;;;;8.55;4.03;;;3.20;99.90;;;;;;5024887;28;20062;-65
2024/02/26 09:36:10;;;;;;;6.72;4.30;;;3.30;99.90;;;;;;5027753;28;20151;-66
2024/02/26 09:38:37;;;;;;;8.07;4.25;;;3.40;99.90;;;;;;5028480;28;20033;-66
2024/02/26 09:41:06;;;;;;;10.07;4.95;;;3.40;99.90;;;;;;5028275;28;20481;-65
2024/02/26 09:43:39;;;;;;;8.85;4.53;;;3.60;99.90;;;;;;5026992;28;20122;-66
2024/02/26 09:46:05;;;;;;;8.32;4.40;;;3.70;99.90;;;;;;5026574;28;20029;-66
2024/02/26 09:48:32;;;;;;;9.18;3.88;;;3.80;99.90;;;;;;5029259;28;20062;-65
2024/02/26 09:50:57;;;;;;;8.90;4.05;;;3.80;99.90;;;;;;5026287;28;20187;-65
2024/02/26 09:53:23;;;;;;;8.45;4.30;;;3.90;99.90;;;;;;5034480;28;20462;-66
2024/02/26 09:55:48;;;;;;;9.18;4.75;;;4.00;99.90;;;;;;5028218;28;20034;-66
2024/02/26 09:58:18;;;;;;;9.40;4.35;;;4.10;99.90;;;;;;5026845;28;20041;-66
2024/02/26 10:00:50;;;;;;;10.48;4.35;;;4.10;99.90;;;;;;5023433;28;20030;-65
2024/02/26 10:03:16;;;;;;;8.35;4.45;;;4.30;99.90;;;;;;5027387;28;20029;-66
2024/02/26 10:05:42;;;;;;;8.00;4.13;;;4.40;99.90;;;;;;5026787;28;20451;-66
2024/02/26 10:08:10;;;;;;;7.05;4.22;;;4.60;99.90;;;;;;5029022;28;20045;-66
2024/02/26 10:10:37;;;;;;;6.95;3.75;;;4.70;99.90;;;;;;5029470;28;20033;-66
2024/02/26 10:13:09;;;;;;;8.88;4.47;;;4.80;99.90;;;;;;5028498;28;20072;-66
2024/02/26 10:15:34;;;;;;;8.48;3.88;;;4.80;99.90;;;;;;5033762;28;20194;-66
2024/02/26 10:18:00;;;;;;;7.88;4.18;;;5.00;99.90;;;;;;5030811;28;20026;-66
2024/02/26 10:20:26;;;;;;;7.95;3.88;;;5.10;99.90;;;;;;5020528;28;20037;-66
2024/02/26 10:22:52;;;;;;;5.45;3.28;;;5.10;99.90;;;;;;5027997;28;20017;-66
2024/02/26 10:25:18;;;;;;;5.80;3.08;;;5.10;99.90;;;;;;5027454;28;20096;-66
2024/02/26 10:27:43;;;;;;;5.90;3.35;;;5.30;99.90;;;;;;5024890;28;20026;-66
2024/02/26 10:30:22;;;;;;;5.75;3.00;;;5.30;99.90;;;;;;5026794;28;20028;-66
2024/02/26 10:32:49;;;;;;;5.82;2.85;;;5.30;99.70;;;;;;5019785;28;20052;-66
2024/02/26 10:35:16;;;;;;;4.68;2.58;;;5.40;99.60;;;;;;5020479;28;20129;-66
2024/02/26 10:37:42;;;;;;;3.72;2.45;;;5.40;99.30;;;;;;5027237;28;20571;-66
2024/02/26 10:40:14;;;;;;;4.22;2.22;;;5.50;99.30;;;;;;5027757;28;20040;-66
2024/02/26 10:42:41;;;;;;;3.60;2.17;;;5.50;98.90;;;;;;5027919;28;20108;-66
2024/02/26 10:45:08;;;;;;;5.25;2.67;;;5.70;98.80;;;;;;5026437;28;20029;-66
2024/02/26 10:47:35;;;;;;;4.47;2.90;;;5.60;98.40;;;;;;5025569;28;20122;-66
2024/02/26 10:50:02;;;;;;;4.18;2.30;;;5.80;98.60;;;;;;5027177;28;20597;-66
2024/02/26 10:52:34;;;;;;;4.78;2.78;;;5.80;98.20;;;;;;5026681;28;20112;-66
2024/02/26 10:55:04;;;;;;;4.57;2.38;;;5.80;98.00;;;;;;5026593;28;20086;-66
2024/02/26 10:57:39;;;;;;;4.50;2.50;;;5.80;97.80;;;;;;5025486;28;20068;-66
2024/02/26 11:00:05;;;;;;;4.22;2.20;;;5.80;97.60;;;;;;5035980;28;20036;-66
2024/02/26 11:02:35;;;;;;;4.63;2.67;;;5.90;97.40;;;;;;5022105;28;20041;-66
2024/02/26 11:05:05;;;;;;;5.25;2.72;;;5.80;97.10;;;;;;5026235;28;20429;-66
2024/02/26 11:07:34;;;;;;;4.07;2.70;;;6.10;97.30;;;;;;5031997;28;20075;-66
2024/02/26 11:10:00;;;;;;;4.88;2.42;;;6.20;97.40;;;;;;5023498;28;20208;-68
2024/02/26 11:12:28;;;;;;;3.92;2.50;;;6.20;97.20;;;;;;5030273;28;20104;-66
2024/02/26 11:14:56;;;;;;;4.68;2.60;;;6.30;97.10;;;;;;5015383;28;20118;-66
2024/02/26 11:17:23;;;;;;;4.10;2.22;;;6.50;97.10;;;;;;5024364;28;20095;-66
2024/02/26 11:19:50;;;;;;;4.45;2.45;;;6.60;97.00;;;;;;5026766;28;20096;-66
2024/02/26 11:22:16;;;;;;;3.45;2.15;;;6.60;96.60;;;;;;5026743;28;20030;-66
2024/02/26 11:24:42;;;;;;;4.30;2.40;;;6.80;96.40;;;;;;5031879;28;20037;-66
2024/02/26 11:27:11;;;;;;;3.67;2.25;;;6.90;95.90;;;;;;5035674;28;20029;-66
2024/02/26 11:29:50;;;;;;;3.25;2.00;;;7.10;95.70;;;;;;5030163;28;20079;-66
2024/02/26 11:32:16;;;;;;;3.53;2.17;;;7.10;94.90;;;;;;5023172;28;20026;-66
2024/02/26 11:34:42;;;;;;;3.22;2.00;;;7.20;94.60;;;;;;5024259;28;20185;-66
2024/02/26 11:37:13;;;;;;;3.55;1.83;;;7.40;94.80;;;;;;5036436;28;20142;-66
2024/02/26 11:39:40;;;;;;;4.45;2.30;;;7.50;95.10;;;;;;5027654;28;20427;-66
2024/02/26 11:42:10;;;;;;;3.15;1.90;;;7.40;93.90;;;;;;5030809;28;20037;-66
2024/02/26 11:44:36;;;;;;;3.65;1.80;;;7.30;92.90;;;;;;5030433;28;20033;-66
2024/02/26 11:47:12;;;;;;;4.20;2.00;;;7.40;93.30;;;;;;5030014;28;20056;-66
2024/02/26 11:49:39;;;;;;;3.22;1.77;;;7.30;93.10;;;;;;5021822;28;20387;-66
2024/02/26 11:52:08;;;;;;;2.40;1.50;;;7.40;93.40;;;;;;5027893;28;20030;-66
2024/02/26 11:54:44;;;;;;;3.58;1.75;;;7.40;92.90;;;;;;5028595;28;20394;-66
2024/02/26 11:57:37;;;;;;;3.53;1.80;;;7.30;92.00;;;;;;5027606;28;20122;-66
2024/02/26 12:00:06;;;;;;;3.03;1.60;;;7.40;92.60;;;;;;5021817;28;20036;-66
2024/02/26 12:02:43;;;;;;;3.55;1.88;;;7.40;91.70;;;;;;5025958;28;20033;-67
2024/02/26 12:05:15;;;;;;;2.83;1.70;;;7.50;91.80;;;;;;5024446;28;20035;-66
2024/02/26 12:07:49;;;;;;;3.20;1.38;;;7.70;93.10;;;;;;5021683;28;20314;-66
2024/02/26 12:10:26;;;;;;;2.95;1.67;;;7.70;92.20;;;;;;5023572;28;20029;-66
2024/02/26 12:13:02;;;;;;;2.38;1.65;;;7.80;92.20;;;;;;5025385;28;20118;-66
2024/02/26 12:15:37;;;;;;;3.83;1.80;;;7.80;92.10;;;;;;5026114;28;20133;-66
2024/02/26 12:18:04;;;;;;;2.83;1.63;;;7.90;91.20;;;;;;5025643;28;20072;-66
2024/02/26 12:20:31;;;;;;;4.43;1.98;;;8.10;91.60;;;;;;5028174;28;20133;-65
2024/02/26 12:22:56;;;;;;;3.10;1.55;;;8.10;90.60;;;;;;5027552;28;20114;-66
2024/02/26 12:25:26;;;;;;;2.40;1.55;;;8.20;90.80;;;;;;5020370;28;20133;-66
2024/02/26 12:27:53;;;;;;;3.03;1.45;;;8.10;89.70;;;;;;5025088;28;20313;-65
2024/02/26 12:30:19;;;;;;;3.67;1.65;;;8.20;89.50;;;;;;5023776;28;20120;-66
2024/02/26 12:32:45;;;;;;;2.70;1.48;;;8.50;89.80;;;;;;5024787;28;20096;-64
2024/02/26 12:35:11;;;;;;;3.17;2.00;;;8.70;89.40;;;;;;5021933;28;20029;-64